No se requiere un especial cuidado respecto a la situación meteorológica. No hay avisos

Informes METAR

 

LEZL - Sevilla, Spain
Distancia de la estación: ENE 8km
Actualización: 01/11/2014 11:30
Despejado
Despejado
 Viento de NE
Viento: NE 13 km/h
Temperatura: 21°C
Rocío: 13°C
Humedad: 60%
Barómetro: 1022 hPa
Resumen: Despejado
Visibilidad: mayor de 10 km
2014/11/01 10:30 LEZL 011030Z 05007KT CAVOK 21/13 Q1022 NOSIG
LEMO - Morón, Spain
Distancia de la estación: SE 43km
Actualización: 01/11/2014 11:00
Despejado
Despejado
 Viento de calm
Viento: Calma
Temperatura: 21°C
Rocío: 9°C
Humedad: 46%
Barómetro: 1023 hPa
Resumen: Despejado
Visibilidad: mayor de 10 km
2014/11/01 10:00 LEMO 011000Z 00000KT CAVOK 21/09 Q1023 NOSIG
LEJR - Jeréz, Spain
Distancia de la estación: S 71km
Actualización: 01/11/2014 11:30
Despejado
Despejado
 Viento de calm
Viento: Calma
Temperatura: 24°C
Rocío: 13°C
Humedad: 50%
Barómetro: 1022 hPa
Resumen: Despejado
Visibilidad: mayor de 10 km
2014/11/01 10:30 LEJR 011030Z 00000KT CAVOK 24/13 Q1022
 
LERT - Rota, Spain
Distancia de la estación: SSO 89km
Actualización: 01/11/2014 11:00
Despejado
Despejado
 Viento de NNE
Viento: NNE 11 km/h
Temperatura: 21°C
Rocío: 12°C
Humedad: 57%
Barómetro: 1022 hPa
Resumen: Despejado
Visibilidad: mayor de 10 km
2014/11/01 10:00 LERT 011000Z 03006KT CAVOK 21/12 Q1022 NOSIG
LEMG - Málaga, Spain
Distancia de la estación: ESE 157km
Actualización: 01/11/2014 11:30
Parcialmente nuboso
Parcialmente nuboso
 Viento de ESE
Viento: ESE 2 km/h
Temperatura: 22°C
Rocío: 17°C
Humedad: 73%
Barómetro: 1024 hPa
Nubes: Parcialmente nuboso
Visibilidad: 10 km
Detalles de las nubes: Parcialmente nuboso 610 m
2014/11/01 10:30 LEMG 011030Z 12001KT 9999 SCT020 22/17 Q1024 NOSIG
LEBA - Córdoba, Spain
Distancia de la estación: ENE 115km
Actualización: 01/11/2014 11:00
Despejado
Despejado
 Viento de E
Viento: E 13 km/h
Temperatura: 18°C
Rocío: 10°C
Humedad: 60%
Barómetro: 1024 hPa
Resumen: Despejado
Visibilidad: mayor de 10 km
2014/11/01 10:00 LEBA 011000Z 09007KT CAVOK 18/10 Q1024
 
LEGR - Granada, Spain
Distancia de la estación: E 198km
Actualización: 01/11/2014 11:30
Despejado
Despejado
 Viento de calm
Viento: Calma
Temperatura: 19°C
Rocío: 10°C
Humedad: 56%
Barómetro: 1025 hPa
Resumen: Despejado
Visibilidad: mayor de 10 km
2014/11/01 10:30 LEGR 011030Z 00000KT CAVOK 19/10 Q1025
LEAM - Almería, Spain
Distancia de la estación: E 326km
Actualización: 01/11/2014 11:30
Despejado
Despejado
 Viento de S
Viento: S 6 km/h
Temperatura: 24°C
Rocío: 15°C
Humedad: 57%
Barómetro: 1023 hPa
Resumen: Despejado
Visibilidad: mayor de 10 km
2014/11/01 10:30 LEAM 011030Z 18003KT 150V230 CAVOK 24/15 Q1023
LEMD - Madrid/Barajas, Spain
Distancia de la estación: NNE 402km
Actualización: 01/11/2014 11:30
Despejado
Despejado
 Viento de variable
Viento: variable 2 km/h
Temperatura: 16°C
Rocío: 9°C
Humedad: 63%
Barómetro: 1025 hPa
Resumen: Despejado
Visibilidad: mayor de 10 km
2014/11/01 10:30 LEMD 011030Z VRB01KT CAVOK 16/09 Q1025 NOSIG
 
LEVD - Valladolid, Spain
Distancia de la estación: N 492km
Actualización: 01/11/2014 11:30
Despejado
Despejado
 Viento de S
Viento: S 7 km/h
Temperatura: 18°C
Rocío: 9°C
Humedad: 56%
Barómetro: 1025 hPa
Resumen: Despejado
Visibilidad: mayor de 10 km
2014/11/01 10:30 LEVD 011030Z 19004KT 150V240 CAVOK 18/09 Q1025
LEBL - Barcelona, Spain
Distancia de la estación: NE 816km
Actualización: 01/11/2014 11:30
Poco nuboso
Poco nuboso
 Viento de variable
Viento: variable 6 km/h
Temperatura: 21°C
Rocío: 15°C
Humedad: 69%
Barómetro: 1024 hPa
Nubes: Poco nuboso
Visibilidad: 10 km
Detalles de las nubes: Poco nuboso 610 m
2014/11/01 10:30 LEBL 011030Z VRB03KT 9999 FEW020 21/15 Q1024 NOSIG
LEVC - Valencia, Spain
Distancia de la estación: ENE 535km
Actualización: 01/11/2014 11:30
Poco nuboso
Poco nuboso
 Viento de calm
Viento: Calma
Temperatura: 22°C
Rocío: 15°C
Humedad: 65%
Barómetro: 1024 hPa
Nubes: Poco nuboso
Visibilidad: 10 km
Detalles de las nubes: Poco nuboso 1219 m
2014/11/01 10:30 LEVC 011030Z 00000KT 9999 FEW040 22/15 Q1024 NOSIG